Time;durP1;ratioP1;P1;durP2;ratioP2;P2;SDS_P1;SDS_P2;PMS_P1;PMS_P2;Temp;Humidity;BMP_temperature;BMP_pressure;BME280_temperature;BME280_humidity;BME280_pressure;Samples;Min_cycle;Max_cycle;Signal;HPM_P1;HPM_P2
2021/08/06 00:01:29;;;;;;;3.05;2.20;;;;;;;;;;5075278;28;20236;-48
2021/08/06 00:03:55;;;;;;;3.25;1.90;;;;;;;;;;5075102;28;20185;-48
2021/08/06 00:06:26;;;;;;;3.88;1.85;;;;;;;;;;5075682;28;20185;-48
2021/08/06 00:08:52;;;;;;;2.00;1.77;;;;;;;;;;5099518;28;20236;-48
2021/08/06 00:11:18;;;;;;;3.53;1.73;;;;;;;;;;5097703;28;20662;-47
2021/08/06 00:13:44;;;;;;;2.10;1.63;;;;;;;;;;5092816;28;20201;-48
2021/08/06 00:16:10;;;;;;;2.10;2.00;;;;;;;;;;5094964;28;20219;-48
2021/08/06 00:18:36;;;;;;;2.13;1.90;;;;;;;;;;5094522;28;20268;-48
2021/08/06 00:21:02;;;;;;;1.80;1.70;;;;;;;;;;5085319;28;20511;-48
2021/08/06 00:23:28;;;;;;;2.45;1.40;;;;;;;;;;5112755;28;20237;-48
2021/08/06 00:25:54;;;;;;;1.55;1.45;;;;;;;;;;5095236;28;20177;-48
2021/08/06 00:28:21;;;;;;;4.72;1.92;;;;;;;;;;5093779;28;20545;-47
2021/08/06 00:30:46;;;;;;;1.70;1.60;;;;;;;;;;5078852;28;20501;-48
2021/08/06 00:33:12;;;;;;;2.28;1.70;;;;;;;;;;5074701;28;20233;-48
2021/08/06 00:35:38;;;;;;;1.65;1.55;;;;;;;;;;5092686;28;20182;-48
2021/08/06 00:38:04;;;;;;;1.92;1.60;;;;;;;;;;5095272;28;20224;-48
2021/08/06 00:40:30;;;;;;;1.52;1.42;;;;;;;;;;5106229;28;20189;-48
2021/08/06 00:42:56;;;;;;;2.28;1.55;;;;;;;;;;5089342;28;20186;-47
2021/08/06 00:45:23;;;;;;;1.58;1.48;;;;;;;;;;5087015;28;20277;-47
2021/08/06 00:47:49;;;;;;;4.43;1.63;;;;;;;;;;5094265;28;20626;-48
2021/08/06 00:50:15;;;;;;;1.63;1.52;;;;;;;;;;5094764;28;20214;-48
2021/08/06 00:52:42;;;;;;;2.45;1.70;;;;;;;;;;5094595;28;20211;-48
2021/08/06 00:55:09;;;;;;;1.52;1.45;;;;;;;;;;5106926;28;20169;-48
2021/08/06 00:57:35;;;;;;;2.13;1.38;;;;;;;;;;5094161;28;20176;-47
2021/08/06 01:00:00;;;;;;;2.08;1.40;;;;;;;;;;5084965;28;20326;-47
2021/08/06 01:02:32;;;;;;;1.98;1.40;;;;;;;;;;5074390;28;20186;-48
2021/08/06 01:05:09;;;;;;;1.60;1.50;;;;;;;;;;5090178;28;20198;-48
2021/08/06 01:07:43;;;;;;;1.90;1.70;;;;;;;;;;5111226;28;20306;-47
2021/08/06 01:10:11;;;;;;;3.65;1.40;;;;;;;;;;5107158;28;20269;-48
2021/08/06 01:12:46;;;;;;;2.17;1.42;;;;;;;;;;5094316;28;20194;-48
2021/08/06 01:15:12;;;;;;;2.78;1.23;;;;;;;;;;5083487;28;20540;-48
2021/08/06 01:17:41;;;;;;;2.65;1.40;;;;;;;;;;5073777;28;20166;-48
2021/08/06 01:20:28;;;;;;;2.05;1.40;;;;;;;;;;5081561;28;20190;-48
2021/08/06 01:22:57;;;;;;;1.40;1.30;;;;;;;;;;5098575;28;20173;-48
2021/08/06 01:25:35;;;;;;;2.35;1.30;;;;;;;;;;5089341;28;20186;-48
2021/08/06 01:28:01;;;;;;;1.70;1.60;;;;;;;;;;5091657;28;20178;-48
2021/08/06 01:30:27;;;;;;;1.70;1.60;;;;;;;;;;5091344;28;20235;-48
2021/08/06 01:32:56;;;;;;;4.05;1.60;;;;;;;;;;5097104;28;20190;-48
2021/08/06 01:35:23;;;;;;;1.92;1.35;;;;;;;;;;5078053;28;20178;-48
2021/08/06 01:37:49;;;;;;;1.95;1.50;;;;;;;;;;5091809;28;20490;-48
2021/08/06 01:40:15;;;;;;;2.70;1.55;;;;;;;;;;5110028;28;20541;-48
2021/08/06 01:42:41;;;;;;;2.00;1.40;;;;;;;;;;5081903;28;20186;-47
2021/08/06 01:45:08;;;;;;;1.70;1.40;;;;;;;;;;5091779;28;20201;-47
2021/08/06 01:47:46;;;;;;;1.80;1.58;;;;;;;;;;5097565;28;20256;-48
2021/08/06 01:50:14;;;;;;;2.97;1.50;;;;;;;;;;5094943;28;20187;-47
2021/08/06 01:52:42;;;;;;;2.47;1.63;;;;;;;;;;5105747;28;20189;-47
2021/08/06 01:55:09;;;;;;;2.25;1.55;;;;;;;;;;5102913;28;20197;-48
2021/08/06 01:57:35;;;;;;;1.60;1.48;;;;;;;;;;5077009;28;20248;-48
2021/08/06 02:00:02;;;;;;;4.82;1.30;;;;;;;;;;5087269;28;20182;-48
2021/08/06 02:02:28;;;;;;;1.58;1.48;;;;;;;;;;5097615;28;20312;-48
2021/08/06 02:04:54;;;;;;;2.38;1.40;;;;;;;;;;5097910;28;20185;-48
2021/08/06 02:07:20;;;;;;;4.95;1.27;;;;;;;;;;5085639;28;20178;-48
2021/08/06 02:09:47;;;;;;;1.30;1.15;;;;;;;;;;5088227;28;20179;-48
2021/08/06 02:12:14;;;;;;;1.17;1.17;;;;;;;;;;5097411;28;20212;-48
2021/08/06 02:14:42;;;;;;;1.65;1.30;;;;;;;;;;5097714;28;20176;-48
2021/08/06 02:17:09;;;;;;;2.53;1.33;;;;;;;;;;5096999;28;20154;-48
2021/08/06 02:19:36;;;;;;;1.83;1.40;;;;;;;;;;5097726;28;20174;-48
2021/08/06 02:22:03;;;;;;;1.20;1.10;;;;;;;;;;5097689;28;20170;-48
2021/08/06 02:24:31;;;;;;;3.50;1.27;;;;;;;;;;5097416;28;20273;-48
2021/08/06 02:26:58;;;;;;;2.13;1.17;;;;;;;;;;5079101;28;20175;-47
2021/08/06 02:29:26;;;;;;;2.10;1.20;;;;;;;;;;5081348;28;20169;-48
2021/08/06 02:31:53;;;;;;;1.20;1.15;;;;;;;;;;5089072;28;20183;-47
2021/08/06 02:34:19;;;;;;;1.55;1.35;;;;;;;;;;5078408;28;20202;-48
2021/08/06 02:36:46;;;;;;;3.00;1.05;;;;;;;;;;5093710;28;20197;-48
2021/08/06 02:39:21;;;;;;;1.50;1.35;;;;;;;;;;5103922;28;20252;-48
2021/08/06 02:41:47;;;;;;;2.17;1.30;;;;;;;;;;5100936;28;20230;-48
2021/08/06 02:44:13;;;;;;;2.28;1.05;;;;;;;;;;5095100;28;20262;-48
2021/08/06 02:46:39;;;;;;;1.75;1.20;;;;;;;;;;5078720;28;20189;-48
2021/08/06 02:49:05;;;;;;;1.80;1.38;;;;;;;;;;5076311;28;20170;-48
2021/08/06 02:51:31;;;;;;;3.10;1.17;;;;;;;;;;5106163;28;20185;-48
2021/08/06 02:53:57;;;;;;;1.00;1.00;;;;;;;;;;5096919;28;20210;-48
2021/08/06 02:56:23;;;;;;;4.18;1.08;;;;;;;;;;5094936;28;20186;-47
2021/08/06 02:58:49;;;;;;;1.92;1.42;;;;;;;;;;5096016;28;20177;-48
2021/08/06 03:01:15;;;;;;;2.55;1.00;;;;;;;;;;5096748;28;20285;-48
2021/08/06 03:03:41;;;;;;;1.60;1.17;;;;;;;;;;5096108;28;20182;-47
2021/08/06 03:06:07;;;;;;;3.60;1.10;;;;;;;;;;5095131;28;20213;-48
2021/08/06 03:08:33;;;;;;;2.38;1.33;;;;;;;;;;5110273;28;20197;-47
2021/08/06 03:10:59;;;;;;;3.28;1.23;;;;;;;;;;5096649;28;20303;-47
2021/08/06 03:13:25;;;;;;;1.20;1.08;;;;;;;;;;5096194;28;20193;-48
2021/08/06 03:15:51;;;;;;;1.52;0.90;;;;;;;;;;5096441;28;20211;-48
2021/08/06 03:18:17;;;;;;;1.30;1.20;;;;;;;;;;5095860;28;20457;-48
2021/08/06 03:20:43;;;;;;;1.98;1.10;;;;;;;;;;5091402;28;20296;-48
2021/08/06 03:23:09;;;;;;;1.17;1.10;;;;;;;;;;5097512;28;20219;-47
2021/08/06 03:25:35;;;;;;;1.30;1.20;;;;;;;;;;5107677;28;20651;-47
2021/08/06 03:28:01;;;;;;;2.33;1.15;;;;;;;;;;5095111;28;20182;-47
2021/08/06 03:30:27;;;;;;;1.08;1.08;;;;;;;;;;5088180;28;20171;-47
2021/08/06 03:32:53;;;;;;;1.73;1.17;;;;;;;;;;5075800;28;20226;-47
2021/08/06 03:35:19;;;;;;;1.70;1.17;;;;;;;;;;5097211;28;20284;-48
2021/08/06 03:37:45;;;;;;;1.77;1.27;;;;;;;;;;5113675;28;20191;-48
2021/08/06 03:40:12;;;;;;;1.30;1.20;;;;;;;;;;5100169;28;20186;-48
2021/08/06 03:42:38;;;;;;;2.78;1.30;;;;;;;;;;5095172;28;20219;-48
2021/08/06 03:45:05;;;;;;;2.05;1.40;;;;;;;;;;5089546;28;20216;-48
2021/08/06 03:47:31;;;;;;;2.13;1.25;;;;;;;;;;5079645;28;20815;-47
2021/08/06 03:49:57;;;;;;;1.58;1.27;;;;;;;;;;5099932;28;20187;-48
2021/08/06 03:52:23;;;;;;;1.67;1.52;;;;;;;;;;5105931;28;20170;-48
2021/08/06 03:54:49;;;;;;;1.40;1.30;;;;;;;;;;5108101;28;20180;-48
2021/08/06 03:57:15;;;;;;;2.10;1.23;;;;;;;;;;5075177;28;20178;-48
2021/08/06 03:59:41;;;;;;;1.67;1.58;;;;;;;;;;5093068;28;20178;-47
2021/08/06 04:02:07;;;;;;;1.75;1.48;;;;;;;;;;5092878;28;20462;-47
2021/08/06 04:04:33;;;;;;;14.35;4.00;;;;;;;;;;5094294;28;20169;-48
2021/08/06 04:06:59;;;;;;;37.33;8.32;;;;;;;;;;5074778;28;20265;-47
2021/08/06 04:09:25;;;;;;;31.35;6.90;;;;;;;;;;5097229;28;20257;-48
2021/08/06 04:11:51;;;;;;;20.65;5.47;;;;;;;;;;5079476;28;20933;-47
2021/08/06 04:14:17;;;;;;;15.45;5.18;;;;;;;;;;5090971;28;20398;-48
2021/08/06 04:16:43;;;;;;;15.90;4.22;;;;;;;;;;5080515;28;20166;-47
2021/08/06 04:19:09;;;;;;;15.40;5.45;;;;;;;;;;5095748;28;20177;-48
2021/08/06 04:21:35;;;;;;;19.67;5.60;;;;;;;;;;5097736;28;20299;-48
2021/08/06 04:24:01;;;;;;;26.08;6.05;;;;;;;;;;5095892;28;20193;-48
2021/08/06 04:26:27;;;;;;;24.90;7.20;;;;;;;;;;5081510;28;20465;-47
2021/08/06 04:28:53;;;;;;;25.83;6.47;;;;;;;;;;5074453;28;20167;-48
2021/08/06 04:31:19;;;;;;;28.02;7.13;;;;;;;;;;5094985;28;20178;-48
2021/08/06 04:33:45;;;;;;;31.55;7.65;;;;;;;;;;5095090;28;20298;-48
2021/08/06 04:36:11;;;;;;;31.77;8.35;;;;;;;;;;5094967;28;20549;-48
2021/08/06 04:38:37;;;;;;;28.10;6.72;;;;;;;;;;5091807;28;20181;-48
2021/08/06 04:41:03;;;;;;;26.23;7.38;;;;;;;;;;5092138;28;20213;-48
2021/08/06 04:43:29;;;;;;;27.80;6.95;;;;;;;;;;5095052;28;20252;-48
2021/08/06 04:45:55;;;;;;;13.48;3.83;;;;;;;;;;5094917;28;20251;-47
2021/08/06 04:48:22;;;;;;;17.02;4.97;;;;;;;;;;5100605;28;20212;-48
2021/08/06 04:50:48;;;;;;;17.95;5.65;;;;;;;;;;5104661;28;20169;-48
2021/08/06 04:53:14;;;;;;;13.63;5.50;;;;;;;;;;5094586;28;20197;-48
2021/08/06 04:55:41;;;;;;;13.50;4.13;;;;;;;;;;5087595;28;20235;-48
2021/08/06 04:58:07;;;;;;;9.77;4.00;;;;;;;;;;5091172;28;20174;-47
2021/08/06 05:00:33;;;;;;;10.27;3.70;;;;;;;;;;5094518;28;20231;-48
2021/08/06 05:02:59;;;;;;;11.35;3.67;;;;;;;;;;5095342;28;20173;-48
2021/08/06 05:05:25;;;;;;;11.35;3.63;;;;;;;;;;5089784;28;20265;-48
2021/08/06 05:07:52;;;;;;;12.00;3.17;;;;;;;;;;5095810;28;20556;-48
2021/08/06 05:10:18;;;;;;;9.95;3.45;;;;;;;;;;5106597;28;20265;-48
2021/08/06 05:12:44;;;;;;;9.98;4.13;;;;;;;;;;5091570;28;20288;-48
2021/08/06 05:15:10;;;;;;;7.90;3.58;;;;;;;;;;5093780;28;20260;-47
2021/08/06 05:17:36;;;;;;;9.32;3.53;;;;;;;;;;5093798;28;20170;-48
2021/08/06 05:20:04;;;;;;;10.68;3.15;;;;;;;;;;5103136;28;20177;-48
2021/08/06 05:23:20;;;;;;;11.27;3.13;;;;;;;;;;5130129;27;20561;-49
2021/08/06 05:28:03;;;;;;;7.63;3.20;;;;;;;;;;5165361;27;20918;-45
2021/08/06 05:30:29;;;;;;;10.35;3.03;;;;;;;;;;5138051;27;20184;-45
2021/08/06 05:32:55;;;;;;;7.72;3.13;;;;;;;;;;5132015;28;20494;-45
2021/08/06 05:35:21;;;;;;;11.13;3.40;;;;;;;;;;5132626;28;20183;-44
2021/08/06 05:37:47;;;;;;;7.43;2.65;;;;;;;;;;5129252;28;20209;-45
2021/08/06 05:40:13;;;;;;;8.52;2.67;;;;;;;;;;5118095;28;20177;-45
2021/08/06 05:42:39;;;;;;;7.00;2.50;;;;;;;;;;5112271;28;20169;-45
2021/08/06 05:45:06;;;;;;;9.43;2.85;;;;;;;;;;5112319;28;20182;-45
2021/08/06 05:47:42;;;;;;;4.68;2.33;;;;;;;;;;5112384;28;20197;-45
2021/08/06 05:50:08;;;;;;;5.68;2.20;;;;;;;;;;5094269;28;20200;-44
2021/08/06 05:52:34;;;;;;;5.30;2.45;;;;;;;;;;5121820;28;20577;-45
2021/08/06 05:55:00;;;;;;;4.70;2.42;;;;;;;;;;5132542;28;20244;-45
2021/08/06 05:57:26;;;;;;;4.53;1.98;;;;;;;;;;5131815;28;20528;-45
2021/08/06 05:59:52;;;;;;;3.83;1.80;;;;;;;;;;5132313;28;20474;-45
2021/08/06 06:02:18;;;;;;;4.90;2.08;;;;;;;;;;5131212;28;20168;-45
2021/08/06 06:04:43;;;;;;;3.97;1.80;;;;;;;;;;5122074;28;20181;-45
2021/08/06 06:07:09;;;;;;;3.97;1.80;;;;;;;;;;5111253;28;20288;-45
2021/08/06 06:09:35;;;;;;;2.85;2.03;;;;;;;;;;5111555;28;20252;-44
2021/08/06 06:12:01;;;;;;;5.15;2.15;;;;;;;;;;5111571;28;20260;-45
2021/08/06 06:14:27;;;;;;;5.45;2.05;;;;;;;;;;5111496;28;20169;-45
2021/08/06 06:16:53;;;;;;;3.60;1.90;;;;;;;;;;5115876;28;20188;-45
2021/08/06 06:19:19;;;;;;;2.20;2.00;;;;;;;;;;5132044;28;20334;-45
2021/08/06 06:21:45;;;;;;;3.38;1.85;;;;;;;;;;5118391;28;20185;-45
2021/08/06 06:24:11;;;;;;;4.10;2.08;;;;;;;;;;5111312;28;20165;-45
2021/08/06 06:26:37;;;;;;;2.42;1.75;;;;;;;;;;5111008;28;20244;-46
2021/08/06 06:29:03;;;;;;;4.75;1.70;;;;;;;;;;5110866;28;20182;-45
2021/08/06 06:31:29;;;;;;;2.83;1.92;;;;;;;;;;5111408;28;20174;-45
2021/08/06 06:33:55;;;;;;;2.88;1.67;;;;;;;;;;5125104;28;20184;-45
2021/08/06 06:36:21;;;;;;;1.80;1.70;;;;;;;;;;5118349;28;20188;-45
2021/08/06 06:38:48;;;;;;;1.85;1.75;;;;;;;;;;5120626;28;20182;-44
2021/08/06 06:41:14;;;;;;;2.03;1.83;;;;;;;;;;5113865;28;20199;-45
2021/08/06 06:43:40;;;;;;;2.88;1.98;;;;;;;;;;5097257;28;20174;-45
2021/08/06 06:46:06;;;;;;;2.67;1.90;;;;;;;;;;5097358;28;20220;-45
2021/08/06 06:48:32;;;;;;;2.20;1.70;;;;;;;;;;5103787;28;20229;-45
2021/08/06 06:50:58;;;;;;;2.25;1.58;;;;;;;;;;5107246;28;20206;-45
2021/08/06 06:53:23;;;;;;;1.73;1.63;;;;;;;;;;5115280;28;20198;-45
2021/08/06 06:55:49;;;;;;;1.92;1.63;;;;;;;;;;5112820;28;20568;-45
2021/08/06 06:58:15;;;;;;;1.63;1.52;;;;;;;;;;5099474;28;20278;-45
2021/08/06 07:00:41;;;;;;;2.33;1.45;;;;;;;;;;5116629;28;20216;-45
2021/08/06 07:03:07;;;;;;;2.17;1.77;;;;;;;;;;5104756;28;20184;-45
2021/08/06 07:05:33;;;;;;;2.03;1.77;;;;;;;;;;5103698;28;20231;-45
2021/08/06 07:08:01;;;;;;;2.83;1.73;;;;;;;;;;5099493;28;20185;-45
2021/08/06 07:10:27;;;;;;;2.92;1.77;;;;;;;;;;5097366;28;20228;-45
2021/08/06 07:12:55;;;;;;;4.00;1.80;;;;;;;;;;5106012;28;20189;-45
2021/08/06 07:15:21;;;;;;;5.03;1.90;;;;;;;;;;5117301;28;20165;-45
2021/08/06 07:17:47;;;;;;;5.93;2.00;;;;;;;;;;5106588;28;20245;-45
2021/08/06 07:20:14;;;;;;;2.63;1.95;;;;;;;;;;5107037;28;20268;-45
2021/08/06 07:22:40;;;;;;;2.17;1.98;;;;;;;;;;5105604;28;20169;-45
2021/08/06 07:25:07;;;;;;;2.20;1.75;;;;;;;;;;5107098;28;20448;-45
2021/08/06 07:27:33;;;;;;;3.75;1.85;;;;;;;;;;5096539;28;20207;-45
2021/08/06 07:29:59;;;;;;;4.50;1.73;;;;;;;;;;5096780;28;20166;-45
2021/08/06 07:32:25;;;;;;;3.55;2.00;;;;;;;;;;5096572;28;20566;-45
2021/08/06 07:34:51;;;;;;;2.05;1.92;;;;;;;;;;5104095;28;20207;-45
2021/08/06 07:37:17;;;;;;;2.47;1.48;;;;;;;;;;5106096;28;20238;-45
2021/08/06 07:39:43;;;;;;;2.08;1.88;;;;;;;;;;5102290;28;20182;-45
2021/08/06 07:42:09;;;;;;;4.28;2.10;;;;;;;;;;5113102;28;20185;-45
2021/08/06 07:44:34;;;;;;;2.00;1.90;;;;;;;;;;5115727;28;20194;-45
2021/08/06 07:47:01;;;;;;;3.67;1.95;;;;;;;;;;5097842;28;20219;-46
2021/08/06 07:49:27;;;;;;;3.08;1.67;;;;;;;;;;5102400;28;20195;-49
2021/08/06 07:51:53;;;;;;;1.83;1.73;;;;;;;;;;5107506;28;20669;-45
2021/08/06 07:54:19;;;;;;;3.63;1.83;;;;;;;;;;5095837;28;20166;-48
2021/08/06 07:56:44;;;;;;;4.30;2.20;;;;;;;;;;5099487;28;20186;-45
2021/08/06 07:59:10;;;;;;;2.25;2.13;;;;;;;;;;5106557;28;20189;-47
2021/08/06 08:01:36;;;;;;;5.03;2.00;;;;;;;;;;5114936;28;20517;-46
2021/08/06 08:04:03;;;;;;;1.73;1.60;;;;;;;;;;5115431;28;20191;-44
2021/08/06 08:06:28;;;;;;;2.10;1.90;;;;;;;;;;5102744;28;20205;-46
2021/08/06 08:11:09;;;;;;;2.13;2.03;;;;;;;;;;5087796;28;20472;-46
2021/08/06 08:13:35;;;;;;;2.20;1.60;;;;;;;;;;5071478;28;20184;-44
2021/08/06 08:16:02;;;;;;;2.72;1.52;;;;;;;;;;5071335;28;20190;-47
2021/08/06 08:18:28;;;;;;;3.03;1.52;;;;;;;;;;5068397;28;20688;-46
2021/08/06 08:21:40;;;;;;;4.00;1.80;;;;;;;;;;5032814;28;20288;-47
2021/08/06 08:24:06;;;;;;;4.93;1.80;;;;;;;;;;5006900;28;20543;-47
2021/08/06 08:26:32;;;;;;;2.15;1.55;;;;;;;;;;4993074;28;20188;-44
2021/08/06 08:28:58;;;;;;;16.17;3.67;;;;;;;;;;5012830;28;20470;-45
2021/08/06 08:32:27;;;;;;;6.45;1.80;;;;;;;;;;5090253;28;20281;-46
2021/08/06 08:34:53;;;;;;;4.95;1.73;;;;;;;;;;5071606;28;20258;-46
2021/08/06 08:37:19;;;;;;;3.35;1.90;;;;;;;;;;5071546;28;20174;-46
2021/08/06 08:39:46;;;;;;;4.28;1.88;;;;;;;;;;5071901;28;20177;-46
2021/08/06 08:42:12;;;;;;;2.30;1.90;;;;;;;;;;5071698;28;20210;-46
2021/08/06 08:44:39;;;;;;;3.60;2.00;;;;;;;;;;5071564;28;20167;-46
2021/08/06 08:47:06;;;;;;;3.97;1.70;;;;;;;;;;5071331;28;20429;-47
2021/08/06 08:49:33;;;;;;;2.28;2.15;;;;;;;;;;5071035;28;20194;-47
2021/08/06 08:52:00;;;;;;;2.33;1.73;;;;;;;;;;5071306;28;20237;-46
2021/08/06 08:54:26;;;;;;;3.67;1.90;;;;;;;;;;5071662;28;20182;-46
2021/08/06 08:56:52;;;;;;;3.33;2.10;;;;;;;;;;5071393;28;20269;-46
2021/08/06 08:59:18;;;;;;;2.88;2.10;;;;;;;;;;5070439;28;20183;-46
2021/08/06 09:01:44;;;;;;;2.15;1.83;;;;;;;;;;5071592;28;20194;-46
2021/08/06 09:04:20;;;;;;;2.00;1.80;;;;;;;;;;5071246;28;20293;-48
2021/08/06 09:06:47;;;;;;;3.30;1.80;;;;;;;;;;5070148;28;20170;-47
2021/08/06 09:09:15;;;;;;;2.50;1.73;;;;;;;;;;5070386;28;20178;-47
2021/08/06 09:11:41;;;;;;;2.17;1.80;;;;;;;;;;5070869;28;20601;-47
2021/08/06 09:14:27;;;;;;;1.90;1.70;;;;;;;;;;5071155;28;20229;-47
2021/08/06 09:16:57;;;;;;;1.77;1.67;;;;;;;;;;5070600;28;20251;-47
2021/08/06 09:19:23;;;;;;;2.53;1.85;;;;;;;;;;5070165;28;20262;-47
2021/08/06 09:21:49;;;;;;;2.70;1.83;;;;;;;;;;5070790;28;20516;-47
2021/08/06 09:24:15;;;;;;;2.97;2.08;;;;;;;;;;5070644;28;20222;-47
2021/08/06 09:26:43;;;;;;;3.17;1.90;;;;;;;;;;5070895;28;20692;-47
2021/08/06 09:29:22;;;;;;;2.20;2.03;;;;;;;;;;5070168;28;20560;-47
2021/08/06 09:31:51;;;;;;;1.85;1.67;;;;;;;;;;5070625;28;20226;-47
2021/08/06 09:34:19;;;;;;;1.90;1.80;;;;;;;;;;5068288;28;20183;-47
2021/08/06 09:36:52;;;;;;;1.55;1.42;;;;;;;;;;5059220;28;20244;-48
2021/08/06 09:39:18;;;;;;;1.92;1.73;;;;;;;;;;5070115;28;20175;-47
2021/08/06 09:41:46;;;;;;;1.80;1.70;;;;;;;;;;5055129;28;20201;-47
2021/08/06 09:44:20;;;;;;;1.80;1.70;;;;;;;;;;5036427;28;20205;-47
2021/08/06 09:46:47;;;;;;;2.20;2.00;;;;;;;;;;5056786;28;20175;-46
2021/08/06 09:49:13;;;;;;;2.25;1.75;;;;;;;;;;5048118;28;20222;-46
2021/08/06 09:51:40;;;;;;;4.22;1.70;;;;;;;;;;5044383;28;20297;-46
2021/08/06 09:54:19;;;;;;;1.98;1.88;;;;;;;;;;5056412;28;20266;-47
2021/08/06 09:56:46;;;;;;;2.92;1.90;;;;;;;;;;5044232;28;20560;-47
2021/08/06 09:59:12;;;;;;;2.47;1.67;;;;;;;;;;5055723;28;20180;-47
2021/08/06 10:01:38;;;;;;;1.92;1.83;;;;;;;;;;5056907;28;20175;-47
2021/08/06 10:04:14;;;;;;;2.15;1.95;;;;;;;;;;5053199;28;20206;-47
2021/08/06 10:06:55;;;;;;;2.15;2.00;;;;;;;;;;5044056;28;20581;-47
2021/08/06 10:09:22;;;;;;;2.40;2.20;;;;;;;;;;5056815;28;20608;-46
2021/08/06 10:11:48;;;;;;;2.30;2.10;;;;;;;;;;5044896;28;20203;-46
2021/08/06 10:14:14;;;;;;;2.20;1.80;;;;;;;;;;5036740;28;20425;-46
2021/08/06 10:16:40;;;;;;;2.10;2.00;;;;;;;;;;5036848;28;20172;-46
2021/08/06 10:19:06;;;;;;;1.98;1.85;;;;;;;;;;5036603;28;20890;-46
2021/08/06 10:21:32;;;;;;;2.03;1.90;;;;;;;;;;5041008;28;20190;-47
2021/08/06 10:23:58;;;;;;;1.90;1.80;;;;;;;;;;5055943;28;20796;-47
2021/08/06 10:26:24;;;;;;;2.20;2.00;;;;;;;;;;5047904;28;20180;-47
2021/08/06 10:28:50;;;;;;;2.05;1.95;;;;;;;;;;5040375;28;20179;-47
2021/08/06 10:31:21;;;;;;;2.47;2.22;;;;;;;;;;5056417;28;20303;-47
2021/08/06 10:34:06;;;;;;;2.30;2.10;;;;;;;;;;5056303;28;20193;-47
2021/08/06 10:36:45;;;;;;;3.63;2.30;;;;;;;;;;5043255;28;20445;-47
2021/08/06 10:39:27;;;;;;;2.17;1.98;;;;;;;;;;5055555;28;20159;-47
2021/08/06 10:41:53;;;;;;;2.42;2.22;;;;;;;;;;5041658;28;20183;-47
2021/08/06 10:44:19;;;;;;;2.40;2.20;;;;;;;;;;5036182;28;20172;-47
2021/08/06 10:46:56;;;;;;;2.17;1.90;;;;;;;;;;5036350;28;20176;-47
2021/08/06 10:49:22;;;;;;;2.25;2.05;;;;;;;;;;5044644;28;20179;-47
2021/08/06 10:51:49;;;;;;;1.95;1.85;;;;;;;;;;5043702;28;20191;-46
2021/08/06 10:54:26;;;;;;;4.32;1.95;;;;;;;;;;5042566;28;20258;-46
2021/08/06 10:57:11;;;;;;;2.35;2.15;;;;;;;;;;5048533;28;20557;-46
2021/08/06 10:59:38;;;;;;;3.28;2.22;;;;;;;;;;5055895;28;20171;-46
2021/08/06 11:02:04;;;;;;;2.50;2.30;;;;;;;;;;5055050;28;20253;-46
2021/08/06 11:04:31;;;;;;;4.38;2.00;;;;;;;;;;5054144;28;20229;-46
2021/08/06 11:06:58;;;;;;;2.22;2.03;;;;;;;;;;5044209;28;20183;-46
2021/08/06 11:09:24;;;;;;;2.28;2.08;;;;;;;;;;5054852;28;20171;-46
2021/08/06 11:12:01;;;;;;;2.17;2.05;;;;;;;;;;5043382;28;20239;-46
2021/08/06 11:14:33;;;;;;;2.90;1.90;;;;;;;;;;5035647;28;20290;-46
2021/08/06 11:16:59;;;;;;;2.72;1.77;;;;;;;;;;5035383;28;20187;-46
2021/08/06 11:19:44;;;;;;;2.78;1.80;;;;;;;;;;5036336;28;20172;-46
2021/08/06 11:22:30;;;;;;;2.17;1.92;;;;;;;;;;5046641;28;20652;-46
2021/08/06 11:25:05;;;;;;;3.22;1.80;;;;;;;;;;5035303;28;20559;-46
2021/08/06 11:27:35;;;;;;;2.83;1.75;;;;;;;;;;5045695;28;20180;-47
2021/08/06 11:30:10;;;;;;;3.88;2.13;;;;;;;;;;5055095;28;20175;-47
2021/08/06 11:32:45;;;;;;;6.13;2.30;;;;;;;;;;5049019;28;20183;-47
2021/08/06 11:35:11;;;;;;;2.03;1.80;;;;;;;;;;5033295;28;20170;-47
2021/08/06 11:37:54;;;;;;;3.85;1.95;;;;;;;;;;5034788;28;20194;-47
2021/08/06 11:40:21;;;;;;;1.60;1.50;;;;;;;;;;5039620;28;20179;-47
2021/08/06 11:42:48;;;;;;;1.55;1.35;;;;;;;;;;5038212;28;20249;-47
2021/08/06 11:45:15;;;;;;;3.13;1.70;;;;;;;;;;5054745;28;20175;-47
2021/08/06 11:47:45;;;;;;;3.33;1.63;;;;;;;;;;5054511;28;20187;-46
2021/08/06 11:50:15;;;;;;;2.05;1.42;;;;;;;;;;5050705;28;20622;-46
2021/08/06 11:52:43;;;;;;;1.88;1.50;;;;;;;;;;5038695;28;20196;-46
2021/08/06 11:55:09;;;;;;;1.55;1.45;;;;;;;;;;5035096;28;20251;-46
2021/08/06 11:57:42;;;;;;;2.47;1.80;;;;;;;;;;5052763;28;20179;-46
2021/08/06 12:00:28;;;;;;;2.15;1.80;;;;;;;;;;5040314;28;20190;-47
2021/08/06 12:03:05;;;;;;;1.73;1.63;;;;;;;;;;5041602;28;20429;-47
2021/08/06 12:05:31;;;;;;;2.90;1.83;;;;;;;;;;5046763;28;20210;-47
2021/08/06 12:07:58;;;;;;;1.65;1.48;;;;;;;;;;5045827;28;20466;-47
2021/08/06 12:10:27;;;;;;;2.25;1.65;;;;;;;;;;5039932;28;20517;-47
2021/08/06 12:12:54;;;;;;;1.50;1.40;;;;;;;;;;5046698;28;20233;-46
2021/08/06 12:15:24;;;;;;;2.33;1.40;;;;;;;;;;5040685;28;20175;-46
2021/08/06 12:18:09;;;;;;;3.38;1.75;;;;;;;;;;5044630;28;20187;-46
2021/08/06 12:20:36;;;;;;;1.98;1.45;;;;;;;;;;5040990;28;20614;-46
2021/08/06 12:23:02;;;;;;;1.55;1.45;;;;;;;;;;5042569;28;20180;-46
2021/08/06 12:25:28;;;;;;;1.50;1.40;;;;;;;;;;5040999;28;20222;-46
2021/08/06 12:27:54;;;;;;;2.97;1.60;;;;;;;;;;5039804;28;20186;-46
2021/08/06 12:30:24;;;;;;;1.58;1.48;;;;;;;;;;5050599;28;20202;-46
2021/08/06 12:32:50;;;;;;;3.03;1.52;;;;;;;;;;5044206;28;20215;-46
2021/08/06 12:35:20;;;;;;;3.17;1.50;;;;;;;;;;5037524;28;20191;-46
2021/08/06 12:37:46;;;;;;;2.15;1.25;;;;;;;;;;5041896;28;20598;-46
2021/08/06 12:40:13;;;;;;;1.90;1.52;;;;;;;;;;5034413;28;20253;-46
2021/08/06 12:42:39;;;;;;;2.05;1.30;;;;;;;;;;5053295;28;20175;-46
2021/08/06 12:45:17;;;;;;;1.50;1.30;;;;;;;;;;5052970;28;20186;-46
2021/08/06 12:47:50;;;;;;;5.00;1.30;;;;;;;;;;5052149;28;20171;-46
2021/08/06 12:50:22;;;;;;;2.78;1.20;;;;;;;;;;5039439;28;20183;-47
2021/08/06 12:53:09;;;;;;;1.70;1.27;;;;;;;;;;5046318;28;20175;-47
2021/08/06 12:55:37;;;;;;;1.15;1.15;;;;;;;;;;5036299;28;20574;-47
2021/08/06 12:58:04;;;;;;;1.77;1.13;;;;;;;;;;5038402;28;20183;-47
2021/08/06 13:00:31;;;;;;;1.00;1.00;;;;;;;;;;5045437;28;20194;-47
2021/08/06 13:03:03;;;;;;;1.30;1.20;;;;;;;;;;5047190;28;20179;-47
2021/08/06 13:05:30;;;;;;;1.13;1.02;;;;;;;;;;5039609;28;20446;-47
2021/08/06 13:08:09;;;;;;;1.10;1.10;;;;;;;;;;5046501;28;20185;-47
2021/08/06 13:10:35;;;;;;;1.35;1.20;;;;;;;;;;5039724;28;20286;-47
2021/08/06 13:13:01;;;;;;;2.38;0.90;;;;;;;;;;5047455;28;20267;-47
2021/08/06 13:15:27;;;;;;;2.97;1.02;;;;;;;;;;5054032;28;20171;-47
2021/08/06 13:17:53;;;;;;;1.05;0.95;;;;;;;;;;5055262;28;20198;-46
2021/08/06 13:20:19;;;;;;;1.00;1.00;;;;;;;;;;5052279;28;20184;-46
2021/08/06 13:22:45;;;;;;;1.08;1.00;;;;;;;;;;5050024;28;20187;-46
2021/08/06 13:25:13;;;;;;;0.90;0.90;;;;;;;;;;5057720;28;20180;-46
2021/08/06 13:27:39;;;;;;;0.80;0.80;;;;;;;;;;5038511;28;20572;-46
2021/08/06 13:30:07;;;;;;;2.70;1.05;;;;;;;;;;5037297;28;20178;-47
2021/08/06 13:32:33;;;;;;;0.80;0.80;;;;;;;;;;5039340;28;20451;-47
2021/08/06 13:34:59;;;;;;;4.05;1.13;;;;;;;;;;5050312;28;20455;-47
2021/08/06 13:37:25;;;;;;;1.75;0.85;;;;;;;;;;5043848;28;20175;-47
2021/08/06 13:39:51;;;;;;;0.98;0.98;;;;;;;;;;5036957;28;20172;-47
2021/08/06 13:42:17;;;;;;;0.85;0.75;;;;;;;;;;5050801;28;20649;-47
2021/08/06 13:44:43;;;;;;;0.77;0.77;;;;;;;;;;5041623;28;20212;-46
2021/08/06 13:47:09;;;;;;;0.93;0.90;;;;;;;;;;5050639;28;20253;-46
2021/08/06 13:49:35;;;;;;;0.65;0.60;;;;;;;;;;5041845;28;20187;-46
2021/08/06 13:52:01;;;;;;;2.13;0.75;;;;;;;;;;5045955;28;20221;-46
2021/08/06 13:54:27;;;;;;;1.23;0.80;;;;;;;;;;5049848;28;20492;-46
2021/08/06 13:56:54;;;;;;;0.60;0.60;;;;;;;;;;5048398;28;20168;-46
2021/08/06 13:59:20;;;;;;;0.73;0.70;;;;;;;;;;5044240;28;20631;-47
2021/08/06 14:01:46;;;;;;;0.80;0.80;;;;;;;;;;5043857;28;20206;-47
2021/08/06 14:04:13;;;;;;;0.82;0.80;;;;;;;;;;5046146;28;20610;-47
2021/08/06 14:06:39;;;;;;;1.17;0.95;;;;;;;;;;5048108;28;20233;-48
2021/08/06 14:09:05;;;;;;;1.10;0.82;;;;;;;;;;5053936;28;20187;-47
2021/08/06 14:11:32;;;;;;;0.88;0.70;;;;;;;;;;5054178;28;20203;-48
2021/08/06 14:13:58;;;;;;;0.90;0.90;;;;;;;;;;5055242;28;20167;-48
2021/08/06 14:16:24;;;;;;;0.80;0.80;;;;;;;;;;5050871;28;20183;-48
2021/08/06 14:18:50;;;;;;;1.92;0.85;;;;;;;;;;5050230;28;20508;-47
2021/08/06 14:21:18;;;;;;;2.13;0.88;;;;;;;;;;5052059;28;20183;-47
2021/08/06 14:23:44;;;;;;;1.98;0.80;;;;;;;;;;5036710;28;20172;-47
2021/08/06 14:26:12;;;;;;;2.15;0.80;;;;;;;;;;5036280;28;20710;-47
2021/08/06 14:28:38;;;;;;;0.70;0.70;;;;;;;;;;5035976;28;20175;-47
2021/08/06 14:31:07;;;;;;;1.00;0.90;;;;;;;;;;5036358;28;20219;-47
2021/08/06 14:33:34;;;;;;;2.58;1.08;;;;;;;;;;5048006;28;20174;-47
2021/08/06 14:36:00;;;;;;;0.98;0.80;;;;;;;;;;5046575;28;20727;-47
2021/08/06 14:38:26;;;;;;;0.95;0.77;;;;;;;;;;5053233;28;20784;-47
2021/08/06 14:40:52;;;;;;;1.63;0.70;;;;;;;;;;5047069;28;20195;-47
2021/08/06 14:43:18;;;;;;;0.68;0.68;;;;;;;;;;5046362;28;20266;-47
2021/08/06 14:45:44;;;;;;;1.35;1.00;;;;;;;;;;5051023;28;20175;-47
2021/08/06 14:48:10;;;;;;;1.13;0.82;;;;;;;;;;5049234;28;20182;-47
2021/08/06 14:50:36;;;;;;;2.35;0.90;;;;;;;;;;5047649;28;20205;-47